Time;durP1;ratioP1;P1;durP2;ratioP2;P2;SDS_P1;SDS_P2;PMS_P1;PMS_P2;Temp;Humidity;BMP_temperature;BMP_pressure;BME280_temperature;BME280_humidity;BME280_pressure;Samples;Min_cycle;Max_cycle;Signal;HPM_P1;HPM_P2
2023/04/21 00:00:12;;;;;;;24.07;16.37;;;;;;;7.37;100.00;101343.28;5078661;28;20043;-85
2023/04/21 00:02:38;;;;;;;22.67;15.73;;;;;;;7.34;100.00;101337.44;5113664;28;20055;-85
2023/04/21 00:05:12;;;;;;;22.40;16.17;;;;;;;7.30;100.00;101339.63;5095672;28;20464;-85
2023/04/21 00:07:39;;;;;;;26.45;16.13;;;;;;;7.28;100.00;101330.91;5114326;28;20027;-85
2023/04/21 00:10:13;;;;;;;23.77;16.40;;;;;;;7.30;100.00;101338.81;5078431;28;20035;-85
2023/04/21 00:12:39;;;;;;;26.63;17.00;;;;;;;7.27;100.00;101325.69;5090496;28;20126;-85
2023/04/21 00:15:05;;;;;;;23.23;16.37;;;;;;;7.23;100.00;101330.59;5078662;28;20123;-85
2023/04/21 00:17:30;;;;;;;25.08;17.23;;;;;;;7.22;100.00;101319.97;5113730;28;20028;-85
2023/04/21 00:19:56;;;;;;;25.03;17.67;;;;;;;7.22;100.00;101328.06;5095612;28;20051;-85
2023/04/21 00:22:21;;;;;;;25.57;17.73;;;;;;;7.17;100.00;101320.53;5080212;28;20472;-85
2023/04/21 00:24:47;;;;;;;26.00;17.83;;;;;;;7.10;100.00;101315.03;5099071;28;20055;-85
2023/04/21 00:27:14;;;;;;;24.87;17.23;;;;;;;7.09;100.00;101309.81;5098709;28;20066;-85
2023/04/21 00:29:40;;;;;;;25.35;17.13;;;;;;;7.09;100.00;101309.81;5099042;28;20023;-85
2023/04/21 00:32:09;;;;;;;26.83;17.60;;;;;;;7.07;100.00;101309.13;5098949;28;20046;-84
2023/04/21 00:34:35;;;;;;;25.98;17.77;;;;;;;7.07;100.00;101307.28;5082591;28;20028;-84
2023/04/21 00:37:02;;;;;;;27.77;18.27;;;;;;;7.06;100.00;101300.22;5117208;28;20487;-85
2023/04/21 00:39:28;;;;;;;28.42;17.98;;;;;;;7.12;100.00;101306.75;5098604;28;20503;-84
2023/04/21 00:41:53;;;;;;;28.00;18.70;;;;;;;7.10;100.00;101306.94;5099130;28;20118;-84
2023/04/21 00:44:18;;;;;;;27.48;18.23;;;;;;;7.11;100.00;101297.78;5082182;28;20054;-85
2023/04/21 00:46:44;;;;;;;28.48;17.52;;;;;;;7.11;100.00;101291.56;5099283;28;20372;-84
2023/04/21 00:49:12;;;;;;;27.93;18.30;;;;;;;7.12;100.00;101302.19;5081588;28;20072;-84
2023/04/21 00:51:37;;;;;;;29.40;18.63;;;;;;;7.13;100.00;101300.31;5098825;28;20553;-84
2023/04/21 00:54:04;;;;;;;29.33;18.93;;;;;;;7.12;100.00;101304.88;5098806;28;20062;-85
2023/04/21 00:56:32;;;;;;;30.63;18.95;;;;;;;7.13;100.00;101300.31;5082315;28;20024;-85
2023/04/21 00:58:59;;;;;;;27.73;19.05;;;;;;;7.12;100.00;101298.66;5116777;28;20108;-84
2023/04/21 01:01:28;;;;;;;28.17;18.75;;;;;;;7.10;100.00;101300.69;5098054;28;20490;-85
2023/04/21 01:03:56;;;;;;;29.00;18.83;;;;;;;7.06;100.00;101297.50;5098433;28;20471;-84
2023/04/21 01:06:22;;;;;;;31.75;19.80;;;;;;;7.07;100.00;101298.34;5098237;28;20391;-85
2023/04/21 01:08:48;;;;;;;28.10;18.73;;;;;;;7.06;100.00;101296.66;5098402;28;20034;-85
2023/04/21 01:11:16;;;;;;;28.67;18.08;;;;;;;7.08;100.00;101294.63;5098328;28;20088;-85
2023/04/21 01:13:45;;;;;;;28.25;18.70;;;;;;;7.05;100.00;101284.22;5097929;28;20077;-85
2023/04/21 01:16:18;;;;;;;27.17;18.02;;;;;;;7.03;100.00;101285.22;5098596;28;20035;-85
2023/04/21 01:18:44;;;;;;;31.45;18.45;;;;;;;7.00;100.00;101285.59;5097885;28;20085;-85
2023/04/21 01:21:10;;;;;;;32.57;19.20;;;;;;;6.97;100.00;101274.31;5098832;28;20028;-85
2023/04/21 01:23:36;;;;;;;29.20;18.33;;;;;;;6.98;100.00;101273.28;5097963;28;20055;-84
2023/04/21 01:26:01;;;;;;;32.47;19.27;;;;;;;6.98;100.00;101273.28;5115946;28;20067;-85
2023/04/21 01:28:27;;;;;;;29.77;18.83;;;;;;;6.98;100.00;101271.44;5097834;28;20528;-84
2023/04/21 01:30:52;;;;;;;32.27;19.03;;;;;;;7.02;100.00;101266.50;5116690;28;20032;-85
2023/04/21 01:33:19;;;;;;;28.02;18.38;;;;;;;6.98;100.00;101251.69;5115642;28;20110;-85
2023/04/21 01:35:45;;;;;;;30.47;18.50;;;;;;;6.99;100.00;101258.78;5115745;28;20031;-84
2023/04/21 01:38:11;;;;;;;30.67;18.58;;;;;;;6.97;100.00;101258.97;5080905;28;20531;-84
2023/04/21 01:40:37;;;;;;;31.80;18.17;;;;;;;6.96;100.00;101249.19;5097687;28;20055;-84
2023/04/21 01:43:03;;;;;;;28.75;18.17;;;;;;;6.95;100.00;101262.84;5115891;28;20032;-84
2023/04/21 01:45:30;;;;;;;27.58;17.90;;;;;;;6.91;100.00;101253.44;5098393;28;20447;-84
2023/04/21 01:47:55;;;;;;;27.30;17.58;;;;;;;6.88;100.00;101254.66;5097500;28;20038;-84
2023/04/21 01:50:21;;;;;;;26.73;17.47;;;;;;;6.88;100.00;101245.72;5081631;28;20063;-84
2023/04/21 01:52:46;;;;;;;29.40;17.33;;;;;;;6.86;100.00;101237.81;5097449;28;20042;-84
2023/04/21 01:55:13;;;;;;;27.10;17.77;;;;;;;6.87;100.00;101230.56;5098297;28;20339;-85
2023/04/21 01:57:39;;;;;;;29.50;17.45;;;;;;;6.81;100.00;101232.13;5097400;28;20036;-84
2023/04/21 02:00:05;;;;;;;31.33;17.87;;;;;;;6.77;100.00;101228.94;5115478;28;20395;-84
2023/04/21 02:02:31;;;;;;;27.73;17.00;;;;;;;6.75;100.00;101219.38;5115577;28;20118;-85
2023/04/21 02:04:56;;;;;;;28.97;17.43;;;;;;;6.72;100.00;101219.72;5116213;28;20432;-84
2023/04/21 02:07:25;;;;;;;30.08;17.58;;;;;;;6.71;100.00;101207.28;5080976;28;20074;-84
2023/04/21 02:09:50;;;;;;;26.85;16.50;;;;;;;6.66;100.00;101200.56;5063580;28;20044;-84
2023/04/21 02:12:16;;;;;;;29.70;17.38;;;;;;;6.64;100.00;101220.63;5097159;28;20107;-84
2023/04/21 02:14:41;;;;;;;27.97;16.33;;;;;;;6.65;100.00;101214.22;5096953;28;20361;-84
2023/04/21 02:17:06;;;;;;;27.43;16.60;;;;;;;6.73;100.00;101222.25;5079939;28;20055;-84
2023/04/21 02:19:32;;;;;;;30.03;17.53;;;;;;;6.76;100.00;101216.50;5080137;28;20036;-84
2023/04/21 02:21:58;;;;;;;29.15;17.10;;;;;;;6.82;100.00;101215.78;5115164;28;20026;-84
2023/04/21 02:24:23;;;;;;;27.73;16.83;;;;;;;6.83;100.00;101211.19;5096852;28;20463;-84
2023/04/21 02:26:48;;;;;;;27.20;16.40;;;;;;;6.77;100.00;101203.84;5096934;28;20031;-85
2023/04/21 02:29:14;;;;;;;28.13;16.77;;;;;;;6.74;100.00;101210.44;5096944;28;20491;-84
2023/04/21 02:31:40;;;;;;;28.97;16.37;;;;;;;6.66;100.00;101195.16;5096796;28;20080;-85
2023/04/21 02:34:06;;;;;;;28.75;17.17;;;;;;;6.70;100.00;101205.59;5096929;28;20049;-84
2023/04/21 02:36:34;;;;;;;28.27;17.03;;;;;;;6.67;100.00;101204.09;5079514;28;20387;-84
2023/04/21 02:38:59;;;;;;;28.83;16.88;;;;;;;6.71;100.00;101197.31;5079763;28;20035;-84
2023/04/21 02:41:24;;;;;;;31.27;17.67;;;;;;;6.73;100.00;101200.69;5062765;28;20047;-84
2023/04/21 02:43:50;;;;;;;30.42;16.30;;;;;;;6.76;100.00;101203.00;5079343;28;20111;-84
2023/04/21 02:46:15;;;;;;;31.00;16.97;;;;;;;6.76;100.00;101205.72;5114733;28;20447;-84
2023/04/21 02:48:41;;;;;;;33.20;18.07;;;;;;;6.78;100.00;101197.44;5097225;28;20456;-84
2023/04/21 02:51:13;;;;;;;33.13;18.17;;;;;;;6.81;100.00;101199.78;5079781;28;20036;-84
2023/04/21 02:53:41;;;;;;;32.83;18.05;;;;;;;6.82;100.00;101194.19;5096339;28;20455;-84
2023/04/21 02:56:07;;;;;;;30.80;17.63;;;;;;;6.82;100.00;101204.13;5096334;28;20032;-84
2023/04/21 02:58:35;;;;;;;32.40;18.60;;;;;;;6.80;100.00;101198.91;5079348;28;20035;-84
2023/04/21 03:01:02;;;;;;;35.25;19.27;;;;;;;6.76;100.00;101194.94;5096497;28;20055;-84
2023/04/21 03:03:27;;;;;;;39.22;18.17;;;;;;;6.76;100.00;101196.75;5114274;28;20555;-84
2023/04/21 03:06:01;;;;;;;35.17;18.80;;;;;;;6.74;100.00;101194.25;5079079;28;20115;-84
2023/04/21 03:08:27;;;;;;;33.90;18.17;;;;;;;6.62;100.00;101193.84;5080157;28;20292;-84
2023/04/21 03:10:52;;;;;;;32.30;18.52;;;;;;;6.53;100.00;101188.72;5096182;28;20470;-83
2023/04/21 03:13:18;;;;;;;35.87;19.13;;;;;;;6.42;100.00;101198.91;5079225;28;20042;-83
2023/04/21 03:15:44;;;;;;;37.28;19.48;;;;;;;6.37;100.00;101192.38;5079567;28;20032;-84
2023/04/21 03:18:10;;;;;;;35.63;20.03;;;;;;;6.28;100.00;101188.88;5079211;28;20035;-84
2023/04/21 03:20:35;;;;;;;34.30;20.02;;;;;;;6.26;100.00;101186.38;5095942;28;20039;-84
2023/04/21 03:23:01;;;;;;;36.00;19.30;;;;;;;6.20;100.00;101184.38;5095968;28;20040;-84
2023/04/21 03:25:26;;;;;;;34.73;19.83;;;;;;;6.19;100.00;101190.78;5096040;28;20066;-84
2023/04/21 03:27:57;;;;;;;35.88;19.95;;;;;;;6.13;100.00;101194.19;5062279;28;20376;-84
2023/04/21 03:30:25;;;;;;;38.42;20.10;;;;;;;6.06;100.00;101191.34;5096613;28;20043;-84
2023/04/21 03:32:50;;;;;;;38.78;20.40;;;;;;;6.08;100.00;101186.66;5078944;28;20460;-84
2023/04/21 03:35:16;;;;;;;38.33;21.45;;;;;;;6.06;100.00;101190.53;5096042;28;20039;-84
2023/04/21 03:37:41;;;;;;;38.57;20.77;;;;;;;6.04;100.00;101184.47;5095930;28;20063;-84
2023/04/21 03:40:07;;;;;;;40.03;20.57;;;;;;;6.02;100.00;101187.34;5079428;28;20031;-85
2023/04/21 03:42:34;;;;;;;42.58;22.10;;;;;;;6.06;100.00;101193.22;5096407;28;20039;-84
2023/04/21 03:45:03;;;;;;;43.72;22.42;;;;;;;6.10;100.00;101190.00;5095793;28;20039;-84
2023/04/21 03:47:28;;;;;;;40.92;21.65;;;;;;;6.14;100.00;101187.78;5096435;28;20055;-84
2023/04/21 03:49:54;;;;;;;42.20;22.20;;;;;;;6.20;100.00;101178.16;5078619;28;20485;-83
2023/04/21 03:52:20;;;;;;;45.55;22.52;;;;;;;6.30;100.00;101194.91;5095797;28;20020;-84
2023/04/21 03:54:45;;;;;;;42.90;22.10;;;;;;;6.38;100.00;101192.19;5113918;28;20451;-84
2023/04/21 03:57:11;;;;;;;44.58;23.70;;;;;;;6.44;100.00;101196.84;5097145;28;20055;-84
2023/04/21 03:59:36;;;;;;;43.80;22.47;;;;;;;6.48;100.00;101192.78;5099687;28;20031;-84
2023/04/21 04:02:04;;;;;;;48.53;23.30;;;;;;;6.56;100.00;101189.19;5099778;28;20043;-84
2023/04/21 04:04:30;;;;;;;45.33;23.42;;;;;;;6.62;100.00;101185.75;5099408;28;20104;-84
2023/04/21 04:06:56;;;;;;;43.10;23.23;;;;;;;6.66;100.00;101188.94;5083383;28;20027;-84
2023/04/21 04:09:21;;;;;;;47.67;24.60;;;;;;;6.71;100.00;101185.69;5082389;28;20047;-85
2023/04/21 04:11:47;;;;;;;46.03;25.40;;;;;;;6.74;100.00;101186.16;5117752;28;20023;-84
2023/04/21 04:14:12;;;;;;;49.42;24.67;;;;;;;6.78;100.00;101183.94;5117370;28;20027;-84
2023/04/21 04:16:38;;;;;;;51.43;24.20;;;;;;;6.84;100.00;101188.63;5117659;28;20045;-84
2023/04/21 04:19:03;;;;;;;46.73;23.40;;;;;;;6.87;100.00;101184.72;5099175;28;20035;-84
2023/04/21 04:21:31;;;;;;;42.27;23.27;;;;;;;6.92;100.00;101185.00;5082453;28;20028;-85
2023/04/21 04:23:57;;;;;;;48.00;25.02;;;;;;;6.94;100.00;101175.72;5099231;28;20027;-85
2023/04/21 04:26:24;;;;;;;48.97;25.58;;;;;;;6.97;100.00;101178.03;5117390;28;20024;-84
2023/04/21 04:28:50;;;;;;;54.83;26.40;;;;;;;6.98;100.00;101182.41;5117264;28;20057;-84
2023/04/21 04:31:16;;;;;;;47.58;24.85;;;;;;;7.01;100.00;101182.06;5099040;28;20031;-84
2023/04/21 04:33:41;;;;;;;48.07;24.73;;;;;;;7.00;100.00;101174.13;5099301;28;20024;-84
2023/04/21 04:36:08;;;;;;;47.40;24.92;;;;;;;7.01;100.00;101179.34;5081885;28;20110;-84
2023/04/21 04:38:36;;;;;;;49.53;25.10;;;;;;;6.99;100.00;101175.97;5116882;28;20042;-84
2023/04/21 04:41:02;;;;;;;47.10;23.97;;;;;;;7.00;100.00;101177.66;5099722;28;20040;-84
2023/04/21 04:43:28;;;;;;;48.25;24.35;;;;;;;7.03;100.00;101187.25;5098805;28;20476;-84
2023/04/21 04:45:53;;;;;;;47.33;25.15;;;;;;;7.07;100.00;101191.28;5098708;28;20022;-84
2023/04/21 04:48:19;;;;;;;50.53;25.27;;;;;;;7.10;100.00;101192.75;5098985;28;20523;-84
2023/04/21 04:50:45;;;;;;;42.67;24.63;;;;;;;7.11;100.00;101187.16;5099210;28;20031;-84
2023/04/21 04:53:10;;;;;;;49.50;24.75;;;;;;;7.13;100.00;101187.84;5098763;28;20467;-84
2023/04/21 04:55:38;;;;;;;46.83;24.57;;;;;;;7.17;100.00;101191.00;5065078;28;20062;-84
2023/04/21 04:58:04;;;;;;;51.17;24.77;;;;;;;7.18;100.00;101185.41;5081327;28;20067;-84
2023/04/21 05:00:30;;;;;;;48.07;25.40;;;;;;;7.23;100.00;101184.84;5116804;28;20067;-85
2023/04/21 05:02:55;;;;;;;52.47;25.55;;;;;;;7.28;100.00;101186.97;5098093;28;20060;-85
2023/04/21 05:05:23;;;;;;;51.40;25.73;;;;;;;7.31;100.00;101190.16;5098747;28;20036;-84
2023/04/21 05:07:49;;;;;;;50.88;26.40;;;;;;;7.35;100.00;101196.88;5097681;28;20115;-84
2023/04/21 05:10:17;;;;;;;51.43;27.03;;;;;;;7.39;100.00;101186.53;5097565;28;20059;-84
2023/04/21 05:12:43;;;;;;;48.15;26.35;;;;;;;7.47;100.00;101191.00;5098882;28;20028;-84
2023/04/21 05:15:09;;;;;;;56.60;27.57;;;;;;;7.48;100.00;101189.97;5116413;28;20517;-86
2023/04/21 05:17:36;;;;;;;59.33;28.55;;;;;;;7.53;100.00;101190.28;5097997;28;20024;-86
2023/04/21 05:20:06;;;;;;;55.92;27.92;;;;;;;7.55;100.00;101189.03;5081205;28;20051;-86
2023/04/21 05:22:52;;;;;;;57.10;28.30;;;;;;;7.64;100.00;101197.88;5098674;28;20028;-86
2023/04/21 05:25:18;;;;;;;58.45;28.13;;;;;;;7.69;100.00;101208.97;5097540;28;20063;-86
2023/04/21 05:27:43;;;;;;;53.10;26.57;;;;;;;7.75;100.00;101201.13;5097448;28;20055;-82
2023/04/21 05:30:09;;;;;;;52.17;27.33;;;;;;;7.84;100.00;101206.25;5081342;28;20036;-84
2023/04/21 05:32:35;;;;;;;54.97;27.97;;;;;;;7.93;100.00;101207.00;5097711;28;20126;-85
2023/04/21 05:35:01;;;;;;;52.25;27.35;;;;;;;7.97;100.00;101205.59;5115718;28;20111;-85
2023/04/21 05:37:26;;;;;;;54.87;27.77;;;;;;;8.01;100.00;101212.25;5097037;28;20034;-84
2023/04/21 05:39:55;;;;;;;59.13;29.15;;;;;;;8.01;100.00;101212.25;5098081;28;20110;-85
2023/04/21 05:42:20;;;;;;;55.80;27.50;;;;;;;8.07;100.00;101216.06;5080763;28;20460;-83
2023/04/21 05:44:46;;;;;;;54.73;27.73;;;;;;;8.11;100.00;101219.25;5115700;28;20027;-83
2023/04/21 05:47:11;;;;;;;50.70;25.90;;;;;;;8.10;100.00;101204.88;5097540;28;20471;-83
2023/04/21 05:49:37;;;;;;;55.17;28.83;;;;;;;8.14;100.00;101208.88;5080224;28;20043;-82
2023/04/21 05:52:02;;;;;;;53.50;28.88;;;;;;;8.20;100.00;101216.22;5080538;28;20488;-83
2023/04/21 05:54:28;;;;;;;51.00;27.33;;;;;;;8.20;100.00;101218.94;5097449;28;20435;-83
2023/04/21 05:56:53;;;;;;;56.30;28.93;;;;;;;8.24;100.00;101225.63;5080764;28;20040;-85
2023/04/21 05:59:19;;;;;;;55.23;28.10;;;;;;;8.26;100.00;101217.34;5080047;28;20495;-84
2023/04/21 06:01:44;;;;;;;54.45;28.55;;;;;;;8.31;100.00;101214.91;5096902;28;20441;-84
2023/04/21 06:04:15;;;;;;;55.97;27.97;;;;;;;8.29;100.00;101206.13;5063165;28;20048;-86
2023/04/21 06:06:43;;;;;;;58.47;29.27;;;;;;;8.33;100.00;101210.13;5079941;28;20031;-84
2023/04/21 06:09:08;;;;;;;53.33;28.23;;;;;;;8.37;100.00;101213.28;5115240;28;20031;-85
2023/04/21 06:11:34;;;;;;;51.97;27.63;;;;;;;8.33;100.00;101206.63;5096544;28;20058;-84
2023/04/21 06:14:00;;;;;;;52.00;28.08;;;;;;;8.28;100.00;101198.22;5096432;28;20372;-85
2023/04/21 06:16:26;;;;;;;54.47;27.90;;;;;;;8.19;100.00;101205.63;5096330;28;20119;-84
2023/04/21 06:18:52;;;;;;;53.85;28.38;;;;;;;8.14;100.00;101208.88;5114995;28;20021;-84
2023/04/21 06:21:20;;;;;;;54.45;28.08;;;;;;;8.12;100.00;101207.41;5095803;28;20027;-85
2023/04/21 06:23:45;;;;;;;51.80;27.95;;;;;;;8.10;100.00;101207.59;5096496;28;20026;-85
2023/04/21 06:26:12;;;;;;;54.60;27.75;;;;;;;8.16;100.00;101206.81;5096292;28;20023;-84
2023/04/21 06:28:38;;;;;;;52.85;27.63;;;;;;;8.35;100.00;101202.66;5096215;28;20448;-85
2023/04/21 06:31:05;;;;;;;54.00;27.02;;;;;;;8.46;100.00;101198.66;5096467;28;20111;-85
2023/04/21 06:33:31;;;;;;;51.78;27.50;;;;;;;8.63;100.00;101207.34;5079904;28;20468;-85
2023/04/21 06:35:56;;;;;;;54.90;28.77;;;;;;;8.81;100.00;101212.28;5079559;28;20043;-84
2023/04/21 06:38:22;;;;;;;47.53;26.73;;;;;;;9.02;100.00;101219.56;5096022;28;20031;-85
2023/04/21 06:40:48;;;;;;;51.20;27.48;;;;;;;9.13;100.00;101213.59;5096705;28;20088;-85
2023/04/21 06:43:13;;;;;;;48.07;27.03;;;;;;;9.14;100.00;101214.44;5095720;28;20479;-85
2023/04/21 06:45:39;;;;;;;50.07;27.13;;;;;;;9.18;100.00;101223.00;5096065;28;20027;-85
2023/04/21 06:48:05;;;;;;;51.75;28.00;;;;;;;9.28;100.00;101221.59;5095927;28;20088;-85
2023/04/21 06:50:30;;;;;;;47.50;25.80;;;;;;;9.36;100.00;101211.66;5095484;28;20467;-84
2023/04/21 06:52:56;;;;;;;46.77;26.77;;;;;;;9.48;100.00;101210.09;5113763;28;20111;-83
2023/04/21 06:55:24;;;;;;;43.60;25.90;;;;;;;9.48;100.00;101210.91;5096660;28;20027;-83
2023/04/21 06:57:50;;;;;;;45.47;25.73;;;;;;;9.39;100.00;101214.81;5096700;28;20349;-83
2023/04/21 07:00:18;;;;;;;46.73;26.10;;;;;;;9.34;100.00;101209.16;5113976;28;20024;-83
2023/04/21 07:02:43;;;;;;;44.33;25.27;;;;;;;9.29;100.00;101206.22;5078867;28;20501;-83
2023/04/21 07:05:09;;;;;;;46.43;25.80;;;;;;;9.30;100.00;101210.56;5114462;28;20090;-83
2023/04/21 07:07:34;;;;;;;48.87;26.87;;;;;;;9.39;100.00;101211.25;5114255;28;20165;-83
2023/04/21 07:09:59;;;;;;;47.08;26.83;;;;;;;9.46;100.00;101202.16;5062512;28;20061;-83
2023/04/21 07:12:25;;;;;;;47.90;26.30;;;;;;;9.51;100.00;101200.69;5096746;28;20487;-83
2023/04/21 07:14:51;;;;;;;46.37;27.20;;;;;;;9.39;100.00;101206.69;5095965;28;20451;-83
2023/04/21 07:17:16;;;;;;;46.65;25.98;;;;;;;9.28;100.00;101205.34;5079957;28;20042;-83
2023/04/21 07:19:44;;;;;;;46.27;26.50;;;;;;;9.19;100.00;101208.44;5113746;28;20032;-83
2023/04/21 07:22:09;;;;;;;44.92;26.20;;;;;;;9.13;100.00;101205.47;5095471;28;20023;-83
2023/04/21 07:24:36;;;;;;;49.00;25.10;;;;;;;9.20;100.00;101202.81;5095855;28;20027;-83
2023/04/21 07:27:01;;;;;;;42.67;24.48;;;;;;;9.26;100.00;101212.84;5078772;28;20052;-83
2023/04/21 07:29:27;;;;;;;38.47;23.80;;;;;;;9.32;100.00;101205.00;5078645;28;20024;-83
2023/04/21 07:31:53;;;;;;;42.38;24.02;;;;;;;9.39;100.00;101206.69;5095936;28;20048;-83
2023/04/21 07:34:19;;;;;;;39.63;23.95;;;;;;;9.44;100.00;101200.69;5095797;28;20035;-83
2023/04/21 07:36:45;;;;;;;35.13;21.77;;;;;;;9.47;100.00;101201.09;5061504;28;20120;-83
2023/04/21 07:39:10;;;;;;;36.30;21.67;;;;;;;9.46;100.00;101201.31;5095909;28;20028;-83
2023/04/21 07:41:35;;;;;;;37.25;21.63;;;;;;;9.44;100.00;101200.69;5113596;28;20455;-83
2023/04/21 07:44:04;;;;;;;33.63;18.80;;;;;;;9.44;100.00;101203.38;5095722;28;20031;-83
2023/04/21 07:46:30;;;;;;;34.88;21.23;;;;;;;9.39;100.00;101205.84;5079039;28;20059;-83
2023/04/21 07:48:57;;;;;;;33.07;20.43;;;;;;;9.37;100.00;101197.91;5078934;28;20051;-83
2023/04/21 07:51:23;;;;;;;30.98;19.95;;;;;;;9.40;100.00;101196.69;5095205;28;20467;-82
2023/04/21 07:53:49;;;;;;;30.60;19.13;;;;;;;9.38;100.00;101201.47;5095884;28;20036;-83
2023/04/21 07:56:15;;;;;;;32.75;19.77;;;;;;;9.37;100.00;101200.63;5095449;28;20028;-83
2023/04/21 07:58:40;;;;;;;34.87;19.00;;;;;;;9.41;100.00;101203.78;5078394;28;20084;-83
2023/04/21 08:01:06;;;;;;;31.35;18.60;;;;;;;9.48;100.00;101201.97;5095376;28;20020;-83
2023/04/21 08:03:31;;;;;;;29.77;19.10;;;;;;;9.62;100.00;101195.56;5095269;28;20048;-83
2023/04/21 08:05:56;;;;;;;31.33;19.17;;;;;;;9.72;99.99;101197.09;5095700;28;20035;-83
2023/04/21 08:08:22;;;;;;;27.23;18.00;;;;;;;9.72;97.25;101192.50;5079049;28;20110;-83
2023/04/21 08:10:47;;;;;;;28.05;17.05;;;;;;;9.74;97.68;101189.56;5078842;28;20034;-83
2023/04/21 08:13:13;;;;;;;28.57;17.50;;;;;;;9.77;97.34;101189.16;5095641;28;20042;-83
2023/04/21 08:15:38;;;;;;;26.40;16.63;;;;;;;9.80;96.18;101191.47;5095253;28;20429;-83
2023/04/21 08:18:04;;;;;;;27.03;17.00;;;;;;;9.80;96.22;101192.34;5095107;28;20036;-83
2023/04/21 08:20:29;;;;;;;28.05;17.77;;;;;;;9.84;96.93;101190.03;5113524;28;20408;-83
2023/04/21 08:22:56;;;;;;;27.77;17.83;;;;;;;9.91;97.41;101187.38;5095286;28;20139;-83
2023/04/21 08:25:22;;;;;;;25.02;15.85;;;;;;;9.94;95.27;101184.25;5095700;28;20371;-83
2023/04/21 08:27:48;;;;;;;23.73;16.20;;;;;;;9.98;94.76;101188.22;5095022;28;20023;-83
2023/04/21 08:30:13;;;;;;;24.23;15.97;;;;;;;10.01;94.20;101194.06;5078315;28;20033;-83
2023/04/21 08:32:48;;;;;;;25.30;15.75;;;;;;;10.05;93.21;101189.06;5113424;28;20032;-83
2023/04/21 08:35:13;;;;;;;22.13;13.80;;;;;;;10.07;92.57;101181.59;5095182;28;20142;-83
2023/04/21 08:37:39;;;;;;;21.20;14.17;;;;;;;10.10;92.48;101183.06;5078295;28;20127;-83
2023/04/21 08:40:05;;;;;;;22.13;14.60;;;;;;;10.13;92.51;101182.66;5094571;28;20042;-83
2023/04/21 08:42:32;;;;;;;21.25;14.93;;;;;;;10.16;93.22;101176.81;5095840;28;20031;-83
2023/04/21 08:44:57;;;;;;;23.83;15.20;;;;;;;10.22;92.39;101178.69;5098534;28;20100;-83
2023/04/21 08:47:26;;;;;;;23.03;13.73;;;;;;;10.30;92.16;101177.66;5098630;28;20035;-84
2023/04/21 08:49:53;;;;;;;22.25;13.60;;;;;;;10.37;91.36;101175.00;5099365;28;20024;-83
2023/04/21 08:52:18;;;;;;;21.88;14.68;;;;;;;10.48;91.50;101186.09;5081872;28;20126;-84
2023/04/21 08:54:46;;;;;;;21.07;13.77;;;;;;;10.58;90.54;101182.13;5098067;28;20074;-84
2023/04/21 08:57:11;;;;;;;20.02;13.48;;;;;;;10.68;89.92;101175.25;5098742;28;20169;-82
2023/04/21 08:59:37;;;;;;;18.97;13.63;;;;;;;10.77;88.67;101169.63;5099085;28;20463;-82
2023/04/21 09:02:14;;;;;;;19.63;13.60;;;;;;;10.90;88.59;101177.75;5098317;28;20566;-82
2023/04/21 09:04:49;;;;;;;21.73;13.73;;;;;;;11.07;88.15;101167.28;5098145;28;20044;-82
2023/04/21 09:07:35;;;;;;;20.52;12.38;;;;;;;11.23;86.96;101166.88;5098600;28;20177;-82
2023/04/21 09:10:01;;;;;;;18.40;11.65;;;;;;;11.39;84.65;101168.28;5098296;28;20059;-82
2023/04/21 09:12:27;;;;;;;18.00;12.07;;;;;;;11.59;83.55;101156.53;5116700;28;20074;-82
2023/04/21 09:14:53;;;;;;;19.02;12.15;;;;;;;11.75;85.08;101156.03;5116200;28;20031;-83
2023/04/21 09:17:26;;;;;;;17.13;12.25;;;;;;;11.87;83.85;101149.91;5097674;28;20039;-83
2023/04/21 09:19:51;;;;;;;15.30;10.73;;;;;;;12.02;82.96;101150.50;5116692;28;20145;-82
2023/04/21 09:22:17;;;;;;;16.48;10.77;;;;;;;12.16;81.36;101151.25;5097904;28;20118;-82
2023/04/21 09:24:58;;;;;;;17.33;11.50;;;;;;;12.32;80.30;101149.06;5081713;28;20111;-83
2023/04/21 09:27:24;;;;;;;17.02;11.68;;;;;;;12.57;79.48;101151.81;5097405;28;20028;-83
2023/04/21 09:29:49;;;;;;;16.83;10.70;;;;;;;12.84;77.15;101143.44;5097714;28;20073;-83
2023/04/21 09:32:19;;;;;;;13.90;9.97;;;;;;;12.99;76.25;101144.75;5116321;28;20471;-82
2023/04/21 09:34:45;;;;;;;14.77;11.20;;;;;;;13.20;76.46;101152.72;5097682;28;20035;-83
2023/04/21 09:37:12;;;;;;;15.20;11.23;;;;;;;13.36;76.65;101160.34;5116025;28;20031;-83
2023/04/21 09:39:37;;;;;;;17.23;11.38;;;;;;;13.60;76.70;101157.78;5097558;28;20023;-83
2023/04/21 09:42:03;;;;;;;14.27;10.70;;;;;;;13.89;74.50;101145.22;5080715;28;20119;-83
2023/04/21 09:44:28;;;;;;;14.23;10.15;;;;;;;14.12;71.91;101147.22;5097209;28;20054;-83
2023/04/21 09:47:02;;;;;;;10.77;7.70;;;;;;;14.10;69.61;101152.09;5080589;28;20054;-83
2023/04/21 09:49:34;;;;;;;10.40;8.40;;;;;;;14.10;68.12;101148.50;5097426;28;20035;-82
2023/04/21 09:52:01;;;;;;;13.82;9.50;;;;;;;14.02;68.28;101136.88;5115504;28;20463;-82
2023/04/21 09:54:31;;;;;;;12.33;8.50;;;;;;;13.97;68.33;101149.53;5079452;28;20115;-83
2023/04/21 09:57:00;;;;;;;12.25;8.90;;;;;;;13.93;68.46;101140.97;5097493;28;20485;-87
2023/04/21 09:59:29;;;;;;;11.57;9.18;;;;;;;14.00;69.29;101136.25;5097046;28;20056;-83
2023/04/21 10:01:58;;;;;;;10.88;7.72;;;;;;;14.21;69.66;101126.72;5096750;28;20489;-83
2023/04/21 10:04:24;;;;;;;14.70;8.35;;;;;;;14.42;67.99;101135.44;5097117;28;20082;-82
2023/04/21 10:06:50;;;;;;;11.30;8.13;;;;;;;14.62;66.09;101132.41;5115751;28;20020;-83
2023/04/21 10:09:21;;;;;;;10.70;8.32;;;;;;;14.69;65.35;101129.56;5096981;28;20102;-83
2023/04/21 10:11:50;;;;;;;19.83;11.48;;;;;;;14.71;64.84;101125.53;5098034;28;20043;-83
2023/04/21 10:14:16;;;;;;;13.25;9.63;;;;;;;14.73;65.53;101122.56;5096847;28;20551;-83
2023/04/21 10:16:41;;;;;;;11.87;9.10;;;;;;;14.76;65.53;101113.91;5096944;28;20123;-84
2023/04/21 10:19:40;;;;;;;13.57;9.93;;;;;;;14.87;66.91;101124.00;5062981;28;20034;-84
2023/04/21 10:22:09;;;;;;;13.50;9.85;;;;;;;15.05;65.60;101111.28;5077651;28;20036;-84
2023/04/21 10:24:39;;;;;;;17.52;12.38;;;;;;;15.04;67.60;101105.00;5114085;28;20031;-84
2023/04/21 10:27:05;;;;;;;15.90;11.73;;;;;;;15.42;65.58;101111.00;5114511;28;20114;-84
2023/04/21 10:29:32;;;;;;;17.08;11.98;;;;;;;15.83;65.13;101111.03;5096402;28;20073;-84
2023/04/21 10:32:01;;;;;;;14.60;11.30;;;;;;;16.29;63.13;101101.72;5080025;28;20032;-83
2023/04/21 10:34:37;;;;;;;14.68;10.52;;;;;;;16.46;61.63;101095.44;5114746;28;20028;-83
2023/04/21 10:37:02;;;;;;;14.30;10.27;;;;;;;16.62;59.57;101096.50;5096450;28;20032;-83
2023/04/21 10:39:35;;;;;;;13.87;10.17;;;;;;;16.66;59.10;101086.72;5096568;28;20035;-83
2023/04/21 10:42:12;;;;;;;13.45;10.05;;;;;;;16.71;59.72;101084.06;5114752;28;20066;-84
2023/04/21 10:44:42;;;;;;;12.80;10.05;;;;;;;16.78;58.29;101083.88;5096502;28;20544;-83
2023/04/21 10:47:07;;;;;;;12.18;9.57;;;;;;;17.16;57.92;101077.59;5114545;28;20031;-83
2023/04/21 10:49:38;;;;;;;13.50;10.73;;;;;;;17.35;58.54;101071.81;5096570;28;20417;-84
2023/04/21 10:52:06;;;;;;;15.45;11.10;;;;;;;17.69;56.33;101077.13;5096600;28;20489;-84
2023/04/21 10:54:46;;;;;;;14.73;11.65;;;;;;;18.10;58.36;101079.50;5114182;28;20437;-83
2023/04/21 10:57:15;;;;;;;14.10;10.60;;;;;;;18.21;55.33;101067.53;5095963;28;20035;-84
2023/04/21 10:59:41;;;;;;;17.13;10.43;;;;;;;18.16;54.46;101068.31;5096145;28;20023;-84
2023/04/21 11:02:12;;;;;;;13.05;10.02;;;;;;;18.21;53.70;101067.53;5095815;28;20471;-83
2023/04/21 11:04:43;;;;;;;14.55;10.43;;;;;;;18.30;53.49;101070.63;5095718;28;20048;-84
2023/04/21 11:07:13;;;;;;;13.70;9.93;;;;;;;18.68;52.20;101064.03;5095831;28;20081;-83